sensor_id;sensor_type;location;lat;lon;timestamp;P1;durP1;ratioP1;P2;durP2;ratioP2
78985;SDS011;68384;55.750;48.746;2023-04-03T00:00:20;12.77;;;5.20;;
78985;SDS011;68384;55.750;48.746;2023-04-03T00:01:25;11.00;;;5.38;;
78985;SDS011;68384;55.750;48.746;2023-04-03T00:02:38;11.93;;;5.40;;
78985;SDS011;68384;55.750;48.746;2023-04-03T00:03:42;8.73;;;4.88;;
78985;SDS011;68384;55.750;48.746;2023-04-03T00:04:47;11.18;;;5.70;;
78985;SDS011;68384;55.750;48.746;2023-04-03T00:05:49;11.38;;;5.10;;
78985;SDS011;68384;55.750;48.746;2023-04-03T00:06:55;15.13;;;5.28;;
78985;SDS011;68384;55.750;48.746;2023-04-03T00:07:57;10.30;;;4.95;;
78985;SDS011;68384;55.750;48.746;2023-04-03T00:09:01;9.38;;;5.20;;
78985;SDS011;68384;55.750;48.746;2023-04-03T00:10:05;11.98;;;5.30;;
78985;SDS011;68384;55.750;48.746;2023-04-03T00:11:09;11.48;;;4.88;;
78985;SDS011;68384;55.750;48.746;2023-04-03T00:12:12;11.90;;;5.13;;
78985;SDS011;68384;55.750;48.746;2023-04-03T00:13:17;8.98;;;5.13;;
78985;SDS011;68384;55.750;48.746;2023-04-03T00:14:20;11.48;;;5.22;;
78985;SDS011;68384;55.750;48.746;2023-04-03T00:16:27;14.07;;;4.95;;
78985;SDS011;68384;55.750;48.746;2023-04-03T00:17:31;11.23;;;5.82;;
78985;SDS011;68384;55.750;48.746;2023-04-03T00:18:34;9.45;;;4.90;;
78985;SDS011;68384;55.750;48.746;2023-04-03T00:19:38;17.33;;;5.38;;
78985;SDS011;68384;55.750;48.746;2023-04-03T00:20:41;10.88;;;4.72;;
78985;SDS011;68384;55.750;48.746;2023-04-03T00:22:46;9.25;;;5.20;;
78985;SDS011;68384;55.750;48.746;2023-04-03T00:24:53;10.10;;;4.80;;
78985;SDS011;68384;55.750;48.746;2023-04-03T00:26:59;8.35;;;5.25;;
78985;SDS011;68384;55.750;48.746;2023-04-03T00:29:05;11.93;;;4.57;;
78985;SDS011;68384;55.750;48.746;2023-04-03T00:30:11;9.70;;;4.68;;
78985;SDS011;68384;55.750;48.746;2023-04-03T00:31:16;10.25;;;5.13;;
78985;SDS011;68384;55.750;48.746;2023-04-03T00:32:21;11.18;;;4.90;;
78985;SDS011;68384;55.750;48.746;2023-04-03T00:33:24;12.75;;;4.70;;
78985;SDS011;68384;55.750;48.746;2023-04-03T00:34:27;7.70;;;4.95;;
78985;SDS011;68384;55.750;48.746;2023-04-03T00:35:30;7.57;;;5.00;;
78985;SDS011;68384;55.750;48.746;2023-04-03T00:36:34;13.30;;;4.38;;
78985;SDS011;68384;55.750;48.746;2023-04-03T00:37:37;8.35;;;5.05;;
78985;SDS011;68384;55.750;48.746;2023-04-03T00:38:41;10.02;;;4.68;;
78985;SDS011;68384;55.750;48.746;2023-04-03T00:39:43;7.25;;;4.75;;
78985;SDS011;68384;55.750;48.746;2023-04-03T00:40:48;11.82;;;4.70;;
78985;SDS011;68384;55.750;48.746;2023-04-03T00:41:51;9.35;;;4.78;;
78985;SDS011;68384;55.750;48.746;2023-04-03T00:42:56;10.45;;;4.90;;
78985;SDS011;68384;55.750;48.746;2023-04-03T00:45:27;7.72;;;4.60;;
78985;SDS011;68384;55.750;48.746;2023-04-03T00:46:35;8.00;;;4.55;;
78985;SDS011;68384;55.750;48.746;2023-04-03T00:47:40;8.25;;;5.30;;
78985;SDS011;68384;55.750;48.746;2023-04-03T00:48:44;10.18;;;5.15;;
78985;SDS011;68384;55.750;48.746;2023-04-03T00:49:48;10.93;;;4.93;;
78985;SDS011;68384;55.750;48.746;2023-04-03T00:50:52;11.80;;;4.60;;
78985;SDS011;68384;55.750;48.746;2023-04-03T00:51:57;9.57;;;4.75;;
78985;SDS011;68384;55.750;48.746;2023-04-03T00:53:01;11.07;;;5.05;;
78985;SDS011;68384;55.750;48.746;2023-04-03T00:54:06;10.45;;;4.60;;
78985;SDS011;68384;55.750;48.746;2023-04-03T00:55:10;7.13;;;4.68;;
78985;SDS011;68384;55.750;48.746;2023-04-03T00:56:15;13.93;;;4.68;;
78985;SDS011;68384;55.750;48.746;2023-04-03T00:57:21;10.00;;;4.50;;
78985;SDS011;68384;55.750;48.746;2023-04-03T00:58:28;10.60;;;4.82;;
78985;SDS011;68384;55.750;48.746;2023-04-03T00:59:38;14.80;;;5.00;;
78985;SDS011;68384;55.750;48.746;2023-04-03T01:00:44;10.38;;;4.65;;
78985;SDS011;68384;55.750;48.746;2023-04-03T01:01:55;11.02;;;5.50;;
78985;SDS011;68384;55.750;48.746;2023-04-03T01:03:00;8.65;;;5.00;;
78985;SDS011;68384;55.750;48.746;2023-04-03T01:04:04;10.45;;;4.60;;
78985;SDS011;68384;55.750;48.746;2023-04-03T01:05:08;10.23;;;5.78;;
78985;SDS011;68384;55.750;48.746;2023-04-03T01:06:12;10.15;;;4.97;;
78985;SDS011;68384;55.750;48.746;2023-04-03T01:07:19;11.25;;;4.95;;
78985;SDS011;68384;55.750;48.746;2023-04-03T01:08:26;9.43;;;4.88;;
78985;SDS011;68384;55.750;48.746;2023-04-03T01:09:29;14.10;;;5.95;;
78985;SDS011;68384;55.750;48.746;2023-04-03T01:10:33;10.38;;;5.03;;
78985;SDS011;68384;55.750;48.746;2023-04-03T01:11:36;11.32;;;5.35;;
78985;SDS011;68384;55.750;48.746;2023-04-03T01:13:47;9.80;;;5.05;;
78985;SDS011;68384;55.750;48.746;2023-04-03T01:14:53;10.80;;;4.88;;
78985;SDS011;68384;55.750;48.746;2023-04-03T01:15:57;7.80;;;4.78;;
78985;SDS011;68384;55.750;48.746;2023-04-03T01:17:20;10.07;;;4.55;;
78985;SDS011;68384;55.750;48.746;2023-04-03T01:18:30;11.18;;;5.15;;
78985;SDS011;68384;55.750;48.746;2023-04-03T01:19:35;7.30;;;4.63;;
78985;SDS011;68384;55.750;48.746;2023-04-03T01:20:48;7.72;;;4.53;;
78985;SDS011;68384;55.750;48.746;2023-04-03T01:22:15;13.45;;;4.60;;
78985;SDS011;68384;55.750;48.746;2023-04-03T01:23:32;12.88;;;5.05;;
78985;SDS011;68384;55.750;48.746;2023-04-03T01:24:46;10.98;;;5.05;;
78985;SDS011;68384;55.750;48.746;2023-04-03T01:25:50;10.40;;;5.18;;
78985;SDS011;68384;55.750;48.746;2023-04-03T01:26:54;11.75;;;4.93;;
78985;SDS011;68384;55.750;48.746;2023-04-03T01:27:58;13.48;;;5.03;;
78985;SDS011;68384;55.750;48.746;2023-04-03T01:29:03;7.53;;;4.90;;
78985;SDS011;68384;55.750;48.746;2023-04-03T01:30:07;10.15;;;5.03;;
78985;SDS011;68384;55.750;48.746;2023-04-03T01:31:13;11.20;;;5.32;;
78985;SDS011;68384;55.750;48.746;2023-04-03T01:32:24;15.57;;;5.10;;
78985;SDS011;68384;55.750;48.746;2023-04-03T01:33:27;10.70;;;4.95;;
78985;SDS011;68384;55.750;48.746;2023-04-03T01:34:31;9.02;;;4.65;;
78985;SDS011;68384;55.750;48.746;2023-04-03T01:35:34;8.77;;;5.25;;
78985;SDS011;68384;55.750;48.746;2023-04-03T01:36:38;11.45;;;5.35;;
78985;SDS011;68384;55.750;48.746;2023-04-03T01:37:40;15.43;;;6.28;;
78985;SDS011;68384;55.750;48.746;2023-04-03T01:38:44;11.27;;;5.22;;
78985;SDS011;68384;55.750;48.746;2023-04-03T01:39:46;10.95;;;5.28;;
78985;SDS011;68384;55.750;48.746;2023-04-03T01:41:52;10.75;;;5.05;;
78985;SDS011;68384;55.750;48.746;2023-04-03T01:42:56;11.52;;;4.78;;
78985;SDS011;68384;55.750;48.746;2023-04-03T01:43:59;9.07;;;4.70;;
78985;SDS011;68384;55.750;48.746;2023-04-03T01:46:05;8.73;;;4.93;;
78985;SDS011;68384;55.750;48.746;2023-04-03T01:47:09;10.02;;;4.93;;
78985;SDS011;68384;55.750;48.746;2023-04-03T01:48:13;7.95;;;5.10;;
78985;SDS011;68384;55.750;48.746;2023-04-03T01:49:17;7.25;;;4.93;;
78985;SDS011;68384;55.750;48.746;2023-04-03T01:50:19;9.27;;;5.00;;
78985;SDS011;68384;55.750;48.746;2023-04-03T01:52:25;9.13;;;4.68;;
78985;SDS011;68384;55.750;48.746;2023-04-03T01:53:29;13.40;;;5.45;;
78985;SDS011;68384;55.750;48.746;2023-04-03T01:54:31;8.55;;;4.38;;
78985;SDS011;68384;55.750;48.746;2023-04-03T01:56:38;8.18;;;4.70;;
78985;SDS011;68384;55.750;48.746;2023-04-03T01:57:41;13.38;;;5.55;;
78985;SDS011;68384;55.750;48.746;2023-04-03T01:58:44;10.90;;;4.60;;
78985;SDS011;68384;55.750;48.746;2023-04-03T01:59:48;8.30;;;4.63;;
78985;SDS011;68384;55.750;48.746;2023-04-03T02:00:51;8.65;;;4.65;;
78985;SDS011;68384;55.750;48.746;2023-04-03T02:01:55;10.45;;;5.15;;
78985;SDS011;68384;55.750;48.746;2023-04-03T02:02:58;8.23;;;4.95;;
78985;SDS011;68384;55.750;48.746;2023-04-03T02:04:02;8.13;;;4.55;;
78985;SDS011;68384;55.750;48.746;2023-04-03T02:05:07;8.77;;;4.93;;
78985;SDS011;68384;55.750;48.746;2023-04-03T02:06:10;10.60;;;4.75;;
78985;SDS011;68384;55.750;48.746;2023-04-03T02:08:17;9.85;;;4.15;;
78985;SDS011;68384;55.750;48.746;2023-04-03T02:09:20;11.70;;;5.03;;
78985;SDS011;68384;55.750;48.746;2023-04-03T02:11:26;10.73;;;4.57;;
78985;SDS011;68384;55.750;48.746;2023-04-03T02:13:32;9.27;;;4.40;;
78985;SDS011;68384;55.750;48.746;2023-04-03T02:14:36;12.75;;;4.85;;
78985;SDS011;68384;55.750;48.746;2023-04-03T02:15:39;12.35;;;5.63;;
78985;SDS011;68384;55.750;48.746;2023-04-03T02:16:46;9.75;;;5.43;;
78985;SDS011;68384;55.750;48.746;2023-04-03T02:17:48;8.43;;;4.95;;
78985;SDS011;68384;55.750;48.746;2023-04-03T02:18:52;10.02;;;4.50;;
78985;SDS011;68384;55.750;48.746;2023-04-03T02:21:00;9.90;;;5.05;;
78985;SDS011;68384;55.750;48.746;2023-04-03T02:23:06;10.50;;;4.93;;
78985;SDS011;68384;55.750;48.746;2023-04-03T02:24:10;8.68;;;4.03;;
78985;SDS011;68384;55.750;48.746;2023-04-03T02:25:12;11.07;;;5.22;;
78985;SDS011;68384;55.750;48.746;2023-04-03T02:26:16;10.85;;;5.07;;
78985;SDS011;68384;55.750;48.746;2023-04-03T02:27:19;13.75;;;4.82;;
78985;SDS011;68384;55.750;48.746;2023-04-03T02:28:23;11.95;;;4.95;;
78985;SDS011;68384;55.750;48.746;2023-04-03T02:29:26;8.82;;;5.35;;
78985;SDS011;68384;55.750;48.746;2023-04-03T02:30:30;11.77;;;5.15;;
78985;SDS011;68384;55.750;48.746;2023-04-03T02:31:32;7.95;;;5.07;;
78985;SDS011;68384;55.750;48.746;2023-04-03T02:33:38;9.05;;;4.68;;
78985;SDS011;68384;55.750;48.746;2023-04-03T02:34:42;11.30;;;4.82;;
78985;SDS011;68384;55.750;48.746;2023-04-03T02:35:46;9.60;;;4.75;;
78985;SDS011;68384;55.750;48.746;2023-04-03T02:36:54;13.20;;;5.22;;
78985;SDS011;68384;55.750;48.746;2023-04-03T02:37:57;11.73;;;5.10;;
78985;SDS011;68384;55.750;48.746;2023-04-03T02:39:01;6.43;;;4.32;;
78985;SDS011;68384;55.750;48.746;2023-04-03T02:40:04;10.55;;;4.55;;
78985;SDS011;68384;55.750;48.746;2023-04-03T02:41:11;7.07;;;4.50;;
78985;SDS011;68384;55.750;48.746;2023-04-03T02:42:14;9.52;;;5.03;;
78985;SDS011;68384;55.750;48.746;2023-04-03T02:44:20;9.63;;;4.80;;
78985;SDS011;68384;55.750;48.746;2023-04-03T02:45:25;10.25;;;4.90;;
78985;SDS011;68384;55.750;48.746;2023-04-03T02:46:27;9.02;;;4.68;;
78985;SDS011;68384;55.750;48.746;2023-04-03T02:48:33;6.60;;;4.40;;
78985;SDS011;68384;55.750;48.746;2023-04-03T02:49:37;9.90;;;5.60;;
78985;SDS011;68384;55.750;48.746;2023-04-03T02:50:40;11.23;;;4.70;;
78985;SDS011;68384;55.750;48.746;2023-04-03T02:51:46;8.68;;;4.20;;
78985;SDS011;68384;55.750;48.746;2023-04-03T02:52:49;9.73;;;6.45;;
78985;SDS011;68384;55.750;48.746;2023-04-03T02:53:52;13.57;;;4.50;;
78985;SDS011;68384;55.750;48.746;2023-04-03T02:54:55;13.55;;;4.72;;
78985;SDS011;68384;55.750;48.746;2023-04-03T02:55:59;8.15;;;4.70;;
78985;SDS011;68384;55.750;48.746;2023-04-03T02:57:01;8.57;;;4.55;;
78985;SDS011;68384;55.750;48.746;2023-04-03T02:58:05;11.43;;;4.60;;
78985;SDS011;68384;55.750;48.746;2023-04-03T02:59:10;11.13;;;4.47;;
78985;SDS011;68384;55.750;48.746;2023-04-03T03:01:16;8.85;;;5.13;;
78985;SDS011;68384;55.750;48.746;2023-04-03T03:02:20;8.07;;;4.78;;
78985;SDS011;68384;55.750;48.746;2023-04-03T03:03:23;9.18;;;4.80;;
78985;SDS011;68384;55.750;48.746;2023-04-03T03:04:27;13.07;;;4.57;;
78985;SDS011;68384;55.750;48.746;2023-04-03T03:05:29;13.50;;;4.97;;
78985;SDS011;68384;55.750;48.746;2023-04-03T03:06:33;15.00;;;6.22;;
78985;SDS011;68384;55.750;48.746;2023-04-03T03:07:37;8.60;;;4.00;;
78985;SDS011;68384;55.750;48.746;2023-04-03T03:08:41;9.40;;;5.00;;
78985;SDS011;68384;55.750;48.746;2023-04-03T03:09:44;7.90;;;4.38;;
78985;SDS011;68384;55.750;48.746;2023-04-03T03:11:50;7.80;;;4.28;;
78985;SDS011;68384;55.750;48.746;2023-04-03T03:13:56;11.88;;;4.18;;
78985;SDS011;68384;55.750;48.746;2023-04-03T03:16:02;8.68;;;4.30;;
78985;SDS011;68384;55.750;48.746;2023-04-03T03:17:07;10.13;;;4.63;;
78985;SDS011;68384;55.750;48.746;2023-04-03T03:18:11;10.73;;;5.50;;
78985;SDS011;68384;55.750;48.746;2023-04-03T03:19:13;10.85;;;5.63;;
78985;SDS011;68384;55.750;48.746;2023-04-03T03:22:23;9.93;;;4.47;;
78985;SDS011;68384;55.750;48.746;2023-04-03T03:23:27;7.20;;;4.25;;
78985;SDS011;68384;55.750;48.746;2023-04-03T03:24:32;10.57;;;4.68;;
78985;SDS011;68384;55.750;48.746;2023-04-03T03:25:37;10.35;;;4.85;;
78985;SDS011;68384;55.750;48.746;2023-04-03T03:26:42;10.75;;;4.15;;
78985;SDS011;68384;55.750;48.746;2023-04-03T03:27:44;8.75;;;4.40;;
78985;SDS011;68384;55.750;48.746;2023-04-03T03:29:50;8.07;;;4.93;;
78985;SDS011;68384;55.750;48.746;2023-04-03T03:30:54;7.63;;;4.53;;
78985;SDS011;68384;55.750;48.746;2023-04-03T03:31:56;9.05;;;4.20;;
78985;SDS011;68384;55.750;48.746;2023-04-03T03:33:00;12.43;;;4.47;;
78985;SDS011;68384;55.750;48.746;2023-04-03T03:34:03;7.57;;;4.18;;
78985;SDS011;68384;55.750;48.746;2023-04-03T03:35:07;5.63;;;3.90;;
78985;SDS011;68384;55.750;48.746;2023-04-03T03:36:10;10.63;;;4.93;;
78985;SDS011;68384;55.750;48.746;2023-04-03T03:37:14;8.80;;;4.68;;
78985;SDS011;68384;55.750;48.746;2023-04-03T03:38:16;9.80;;;4.47;;
78985;SDS011;68384;55.750;48.746;2023-04-03T03:39:22;8.40;;;4.18;;
78985;SDS011;68384;55.750;48.746;2023-04-03T03:40:25;6.60;;;4.28;;
78985;SDS011;68384;55.750;48.746;2023-04-03T03:41:28;8.15;;;4.22;;
78985;SDS011;68384;55.750;48.746;2023-04-03T03:42:32;12.00;;;4.47;;
78985;SDS011;68384;55.750;48.746;2023-04-03T03:43:35;7.25;;;4.00;;
78985;SDS011;68384;55.750;48.746;2023-04-03T03:45:41;9.38;;;3.63;;
78985;SDS011;68384;55.750;48.746;2023-04-03T03:47:47;10.10;;;3.95;;
78985;SDS011;68384;55.750;48.746;2023-04-03T03:48:51;10.50;;;4.40;;
78985;SDS011;68384;55.750;48.746;2023-04-03T03:49:53;9.98;;;4.55;;
78985;SDS011;68384;55.750;48.746;2023-04-03T03:50:57;8.93;;;4.65;;
78985;SDS011;68384;55.750;48.746;2023-04-03T03:51:59;7.90;;;4.00;;
78985;SDS011;68384;55.750;48.746;2023-04-03T03:53:03;7.60;;;3.83;;
78985;SDS011;68384;55.750;48.746;2023-04-03T03:54:06;6.93;;;4.20;;
78985;SDS011;68384;55.750;48.746;2023-04-03T03:55:11;9.50;;;4.25;;
78985;SDS011;68384;55.750;48.746;2023-04-03T03:56:14;12.98;;;3.78;;
78985;SDS011;68384;55.750;48.746;2023-04-03T03:57:18;9.95;;;4.70;;
78985;SDS011;68384;55.750;48.746;2023-04-03T03:58:20;6.55;;;3.67;;
78985;SDS011;68384;55.750;48.746;2023-04-03T03:59:24;9.73;;;3.83;;
78985;SDS011;68384;55.750;48.746;2023-04-03T04:00:27;8.20;;;3.70;;
78985;SDS011;68384;55.750;48.746;2023-04-03T04:01:31;8.13;;;4.07;;
78985;SDS011;68384;55.750;48.746;2023-04-03T04:02:35;7.70;;;4.55;;
78985;SDS011;68384;55.750;48.746;2023-04-03T04:04:05;6.63;;;4.00;;
78985;SDS011;68384;55.750;48.746;2023-04-03T04:05:09;8.13;;;4.30;;
78985;SDS011;68384;55.750;48.746;2023-04-03T04:06:12;7.82;;;3.97;;
78985;SDS011;68384;55.750;48.746;2023-04-03T04:07:16;6.28;;;3.50;;
78985;SDS011;68384;55.750;48.746;2023-04-03T04:08:18;9.18;;;3.83;;
78985;SDS011;68384;55.750;48.746;2023-04-03T04:09:22;8.32;;;3.58;;
78985;SDS011;68384;55.750;48.746;2023-04-03T04:10:26;7.93;;;3.47;;
78985;SDS011;68384;55.750;48.746;2023-04-03T04:11:30;6.15;;;3.42;;
78985;SDS011;68384;55.750;48.746;2023-04-03T04:13:38;5.75;;;3.70;;
78985;SDS011;68384;55.750;48.746;2023-04-03T04:14:41;6.75;;;3.45;;
78985;SDS011;68384;55.750;48.746;2023-04-03T04:15:44;6.85;;;3.65;;
78985;SDS011;68384;55.750;48.746;2023-04-03T04:16:47;8.40;;;3.72;;
78985;SDS011;68384;55.750;48.746;2023-04-03T04:17:51;8.93;;;3.70;;
78985;SDS011;68384;55.750;48.746;2023-04-03T04:18:55;7.97;;;3.60;;
78985;SDS011;68384;55.750;48.746;2023-04-03T04:19:58;7.53;;;4.18;;
78985;SDS011;68384;55.750;48.746;2023-04-03T04:21:01;7.97;;;3.42;;
78985;SDS011;68384;55.750;48.746;2023-04-03T04:22:05;11.93;;;3.83;;
78985;SDS011;68384;55.750;48.746;2023-04-03T04:23:08;7.25;;;4.20;;
78985;SDS011;68384;55.750;48.746;2023-04-03T04:24:11;5.85;;;3.22;;
78985;SDS011;68384;55.750;48.746;2023-04-03T04:25:14;6.38;;;3.30;;
78985;SDS011;68384;55.750;48.746;2023-04-03T04:27:22;8.98;;;4.22;;
78985;SDS011;68384;55.750;48.746;2023-04-03T04:28:25;5.55;;;3.63;;
78985;SDS011;68384;55.750;48.746;2023-04-03T04:29:28;8.32;;;3.97;;
78985;SDS011;68384;55.750;48.746;2023-04-03T04:30:36;7.57;;;3.20;;
78985;SDS011;68384;55.750;48.746;2023-04-03T04:31:39;6.97;;;3.28;;
78985;SDS011;68384;55.750;48.746;2023-04-03T04:32:43;4.47;;;2.95;;
78985;SDS011;68384;55.750;48.746;2023-04-03T04:33:45;6.68;;;3.75;;
78985;SDS011;68384;55.750;48.746;2023-04-03T04:34:49;16.20;;;3.40;;
78985;SDS011;68384;55.750;48.746;2023-04-03T04:35:52;6.90;;;3.25;;
78985;SDS011;68384;55.750;48.746;2023-04-03T04:37:58;10.38;;;4.25;;
78985;SDS011;68384;55.750;48.746;2023-04-03T04:39:02;7.03;;;3.10;;
78985;SDS011;68384;55.750;48.746;2023-04-03T04:40:05;6.45;;;3.15;;
78985;SDS011;68384;55.750;48.746;2023-04-03T04:41:10;7.38;;;2.85;;
78985;SDS011;68384;55.750;48.746;2023-04-03T04:42:14;7.78;;;2.97;;
78985;SDS011;68384;55.750;48.746;2023-04-03T04:43:18;9.90;;;3.92;;
78985;SDS011;68384;55.750;48.746;2023-04-03T04:44:21;7.72;;;3.15;;
78985;SDS011;68384;55.750;48.746;2023-04-03T04:45:24;7.53;;;3.75;;
78985;SDS011;68384;55.750;48.746;2023-04-03T04:46:27;5.90;;;3.17;;
78985;SDS011;68384;55.750;48.746;2023-04-03T04:47:31;8.50;;;3.60;;
78985;SDS011;68384;55.750;48.746;2023-04-03T04:48:33;6.57;;;3.78;;
78985;SDS011;68384;55.750;48.746;2023-04-03T04:49:37;4.25;;;2.85;;
78985;SDS011;68384;55.750;48.746;2023-04-03T04:50:40;8.65;;;3.30;;
78985;SDS011;68384;55.750;48.746;2023-04-03T04:51:44;6.63;;;2.70;;
78985;SDS011;68384;55.750;48.746;2023-04-03T04:52:52;8.85;;;2.70;;
78985;SDS011;68384;55.750;48.746;2023-04-03T04:54:58;11.73;;;3.22;;
78985;SDS011;68384;55.750;48.746;2023-04-03T04:56:03;8.95;;;2.67;;
78985;SDS011;68384;55.750;48.746;2023-04-03T04:57:06;8.95;;;3.50;;
78985;SDS011;68384;55.750;48.746;2023-04-03T04:59:15;6.63;;;3.22;;
78985;SDS011;68384;55.750;48.746;2023-04-03T05:00:19;6.70;;;2.85;;
78985;SDS011;68384;55.750;48.746;2023-04-03T05:01:23;9.05;;;3.80;;
78985;SDS011;68384;55.750;48.746;2023-04-03T05:02:26;8.77;;;3.15;;
78985;SDS011;68384;55.750;48.746;2023-04-03T05:03:30;5.35;;;2.95;;
78985;SDS011;68384;55.750;48.746;2023-04-03T05:04:33;6.95;;;3.13;;
78985;SDS011;68384;55.750;48.746;2023-04-03T05:06:39;7.57;;;3.20;;
78985;SDS011;68384;55.750;48.746;2023-04-03T05:07:43;7.30;;;2.95;;
78985;SDS011;68384;55.750;48.746;2023-04-03T05:08:46;9.75;;;3.33;;
78985;SDS011;68384;55.750;48.746;2023-04-03T05:09:50;4.50;;;2.88;;
78985;SDS011;68384;55.750;48.746;2023-04-03T05:10:52;4.95;;;3.05;;
78985;SDS011;68384;55.750;48.746;2023-04-03T05:11:57;10.07;;;3.40;;
78985;SDS011;68384;55.750;48.746;2023-04-03T05:12:59;20.52;;;3.83;;
78985;SDS011;68384;55.750;48.746;2023-04-03T05:15:08;11.02;;;3.72;;
78985;SDS011;68384;55.750;48.746;2023-04-03T05:16:12;5.80;;;3.10;;
78985;SDS011;68384;55.750;48.746;2023-04-03T05:17:15;11.27;;;3.25;;
78985;SDS011;68384;55.750;48.746;2023-04-03T05:18:19;6.40;;;2.80;;
78985;SDS011;68384;55.750;48.746;2023-04-03T05:19:21;8.05;;;2.83;;
78985;SDS011;68384;55.750;48.746;2023-04-03T05:20:25;6.82;;;3.22;;
78985;SDS011;68384;55.750;48.746;2023-04-03T05:21:27;4.85;;;2.60;;
78985;SDS011;68384;55.750;48.746;2023-04-03T05:22:34;4.97;;;3.15;;
78985;SDS011;68384;55.750;48.746;2023-04-03T05:23:36;8.27;;;3.28;;
78985;SDS011;68384;55.750;48.746;2023-04-03T05:25:43;7.13;;;2.90;;
78985;SDS011;68384;55.750;48.746;2023-04-03T05:26:48;5.72;;;3.00;;
78985;SDS011;68384;55.750;48.746;2023-04-03T05:27:52;7.18;;;2.80;;
78985;SDS011;68384;55.750;48.746;2023-04-03T05:28:56;7.43;;;2.95;;
78985;SDS011;68384;55.750;48.746;2023-04-03T05:30:02;5.93;;;2.90;;
78985;SDS011;68384;55.750;48.746;2023-04-03T05:31:06;7.68;;;2.85;;
78985;SDS011;68384;55.750;48.746;2023-04-03T05:32:09;7.25;;;3.08;;
78985;SDS011;68384;55.750;48.746;2023-04-03T05:33:13;5.47;;;2.88;;
78985;SDS011;68384;55.750;48.746;2023-04-03T05:34:15;8.70;;;2.80;;
78985;SDS011;68384;55.750;48.746;2023-04-03T05:35:19;7.55;;;2.95;;
78985;SDS011;68384;55.750;48.746;2023-04-03T05:36:23;8.48;;;2.83;;
78985;SDS011;68384;55.750;48.746;2023-04-03T05:37:27;6.57;;;2.92;;
78985;SDS011;68384;55.750;48.746;2023-04-03T05:38:31;6.07;;;2.95;;
78985;SDS011;68384;55.750;48.746;2023-04-03T05:39:34;6.35;;;3.00;;
78985;SDS011;68384;55.750;48.746;2023-04-03T05:40:37;7.00;;;3.15;;
78985;SDS011;68384;55.750;48.746;2023-04-03T05:41:48;7.80;;;2.65;;
78985;SDS011;68384;55.750;48.746;2023-04-03T05:42:51;4.25;;;2.50;;
78985;SDS011;68384;55.750;48.746;2023-04-03T05:43:55;7.20;;;2.67;;
78985;SDS011;68384;55.750;48.746;2023-04-03T05:46:02;6.47;;;2.72;;
78985;SDS011;68384;55.750;48.746;2023-04-03T05:47:06;5.65;;;2.72;;
78985;SDS011;68384;55.750;48.746;2023-04-03T05:48:10;19.23;;;3.00;;
78985;SDS011;68384;55.750;48.746;2023-04-03T05:49:12;5.20;;;2.70;;
78985;SDS011;68384;55.750;48.746;2023-04-03T05:50:16;11.32;;;2.55;;
78985;SDS011;68384;55.750;48.746;2023-04-03T05:51:19;6.72;;;2.40;;
78985;SDS011;68384;55.750;48.746;2023-04-03T05:52:30;5.50;;;2.72;;
78985;SDS011;68384;55.750;48.746;2023-04-03T05:53:36;9.32;;;3.30;;
78985;SDS011;68384;55.750;48.746;2023-04-03T05:54:40;6.90;;;2.70;;
78985;SDS011;68384;55.750;48.746;2023-04-03T05:55:43;5.20;;;2.85;;
78985;SDS011;68384;55.750;48.746;2023-04-03T05:56:47;8.55;;;2.63;;
78985;SDS011;68384;55.750;48.746;2023-04-03T05:57:50;5.85;;;2.60;;
78985;SDS011;68384;55.750;48.746;2023-04-03T05:59:56;10.73;;;3.05;;
78985;SDS011;68384;55.750;48.746;2023-04-03T06:01:02;6.47;;;2.47;;
78985;SDS011;68384;55.750;48.746;2023-04-03T06:02:04;6.55;;;3.00;;
78985;SDS011;68384;55.750;48.746;2023-04-03T06:03:08;7.82;;;2.60;;
78985;SDS011;68384;55.750;48.746;2023-04-03T06:04:12;7.38;;;2.70;;
78985;SDS011;68384;55.750;48.746;2023-04-03T06:05:16;5.78;;;2.42;;
78985;SDS011;68384;55.750;48.746;2023-04-03T06:06:19;7.15;;;1.92;;
78985;SDS011;68384;55.750;48.746;2023-04-03T06:07:24;6.35;;;3.33;;
78985;SDS011;68384;55.750;48.746;2023-04-03T06:08:30;5.18;;;2.30;;
78985;SDS011;68384;55.750;48.746;2023-04-03T06:09:33;3.22;;;2.42;;
78985;SDS011;68384;55.750;48.746;2023-04-03T06:10:36;5.95;;;2.33;;
78985;SDS011;68384;55.750;48.746;2023-04-03T06:11:40;7.65;;;2.83;;
78985;SDS011;68384;55.750;48.746;2023-04-03T06:12:44;7.70;;;2.15;;
78985;SDS011;68384;55.750;48.746;2023-04-03T06:13:48;4.60;;;2.00;;
78985;SDS011;68384;55.750;48.746;2023-04-03T06:14:51;9.23;;;2.20;;
78985;SDS011;68384;55.750;48.746;2023-04-03T06:15:55;7.22;;;2.60;;
78985;SDS011;68384;55.750;48.746;2023-04-03T06:17:00;7.32;;;2.40;;
78985;SDS011;68384;55.750;48.746;2023-04-03T06:18:03;6.15;;;2.53;;
78985;SDS011;68384;55.750;48.746;2023-04-03T06:19:07;4.90;;;2.17;;
78985;SDS011;68384;55.750;48.746;2023-04-03T06:20:11;5.47;;;3.00;;
78985;SDS011;68384;55.750;48.746;2023-04-03T06:21:15;4.68;;;2.20;;
78985;SDS011;68384;55.750;48.746;2023-04-03T06:22:18;6.43;;;2.30;;
78985;SDS011;68384;55.750;48.746;2023-04-03T06:23:23;4.65;;;2.40;;
78985;SDS011;68384;55.750;48.746;2023-04-03T06:24:27;10.70;;;2.70;;
78985;SDS011;68384;55.750;48.746;2023-04-03T06:25:30;5.13;;;2.53;;
78985;SDS011;68384;55.750;48.746;2023-04-03T06:26:35;4.20;;;2.35;;
78985;SDS011;68384;55.750;48.746;2023-04-03T06:27:38;6.18;;;2.60;;
78985;SDS011;68384;55.750;48.746;2023-04-03T06:28:42;7.32;;;1.90;;
78985;SDS011;68384;55.750;48.746;2023-04-03T06:30:47;4.05;;;2.13;;
78985;SDS011;68384;55.750;48.746;2023-04-03T06:32:55;4.45;;;2.30;;
78985;SDS011;68384;55.750;48.746;2023-04-03T06:33:59;5.05;;;2.00;;
78985;SDS011;68384;55.750;48.746;2023-04-03T06:35:02;4.25;;;2.17;;
78985;SDS011;68384;55.750;48.746;2023-04-03T06:36:06;4.47;;;2.03;;
78985;SDS011;68384;55.750;48.746;2023-04-03T06:37:10;7.13;;;2.50;;
78985;SDS011;68384;55.750;48.746;2023-04-03T06:38:18;12.48;;;3.15;;
78985;SDS011;68384;55.750;48.746;2023-04-03T06:39:21;4.32;;;2.17;;
78985;SDS011;68384;55.750;48.746;2023-04-03T06:40:25;8.23;;;2.22;;
78985;SDS011;68384;55.750;48.746;2023-04-03T06:41:29;5.10;;;2.28;;
78985;SDS011;68384;55.750;48.746;2023-04-03T06:42:34;7.00;;;2.00;;
78985;SDS011;68384;55.750;48.746;2023-04-03T06:43:38;11.98;;;2.70;;
78985;SDS011;68384;55.750;48.746;2023-04-03T06:45:45;5.50;;;3.03;;
78985;SDS011;68384;55.750;48.746;2023-04-03T06:46:48;8.32;;;2.38;;
78985;SDS011;68384;55.750;48.746;2023-04-03T06:47:54;7.22;;;2.35;;
78985;SDS011;68384;55.750;48.746;2023-04-03T06:48:58;4.15;;;2.20;;
78985;SDS011;68384;55.750;48.746;2023-04-03T06:50:02;5.05;;;2.38;;
78985;SDS011;68384;55.750;48.746;2023-04-03T06:51:05;5.82;;;2.58;;
78985;SDS011;68384;55.750;48.746;2023-04-03T06:52:09;5.25;;;2.50;;
78985;SDS011;68384;55.750;48.746;2023-04-03T06:53:13;4.63;;;2.30;;
78985;SDS011;68384;55.750;48.746;2023-04-03T06:54:17;7.47;;;2.08;;
78985;SDS011;68384;55.750;48.746;2023-04-03T06:55:20;5.97;;;2.30;;
78985;SDS011;68384;55.750;48.746;2023-04-03T06:56:24;6.85;;;2.10;;
78985;SDS011;68384;55.750;48.746;2023-04-03T06:57:29;5.45;;;2.65;;
78985;SDS011;68384;55.750;48.746;2023-04-03T06:58:33;7.55;;;2.70;;
78985;SDS011;68384;55.750;48.746;2023-04-03T06:59:37;6.85;;;2.80;;
78985;SDS011;68384;55.750;48.746;2023-04-03T07:00:40;5.63;;;2.30;;
78985;SDS011;68384;55.750;48.746;2023-04-03T07:01:44;5.22;;;2.28;;
78985;SDS011;68384;55.750;48.746;2023-04-03T07:02:47;5.57;;;2.42;;